Etusivu
METAR-TAF:

METAR-TAF

Lentoasemat :

Kuwait, Kuwait

Kuwaitin kansainvälinen lentoasema

Leveyspiiri: 29-13N, Pituuspiiri: 047-59E, korkeus merenpinnasta: 55 m

Tämänhetkinen sää

Tämä raportti tehtiin 52 minuuttia sitten, kello 15.00 UTC
Tuuli 10 kn luoteesta
Lämpötila 21°C
Kosteus 33%
Ilmanpaine 1015 hPa
Näkyvyys 10 km tai enemmän
ei pilviä alle 1500 m:ssä eikä cumulonimbus-pilviä

METAR: OKBK 191500Z 32010KT CAVOK 21/04 Q1015 NOSIG

Aika: 18:52 (15:52 UTC)

Sääennuste

Tämä raportti tehtiin 5 tuntia ja 7 minuuttia sitten, kello 10.45 UTC
Ennuste voimassa 19. päivästä klo 12 UTC - 20. päivään klo 18 UTC
Tuuli 14 kn luoteesta
Näkyvyys: 7000 m
Hajanaisia pilviä 4000 ft:n korkeudessa

TAF: OKBK 191045Z 1912/2018 32014KT 7000 SCT040

Säähavainnot ja -ennusteet yli 4000 lentoasemalta (METAR- ja TAF-raportit).

Käytössä olevat sääasemat on merkitty karttaan keltaisilla ja punaisilla pisteillä.

Aseta hiiri pisteen päälle nähdäksesi sääaseman nimen.

Klikkaa sitten nähdäksesi säähavainnot ja -ennusteet.

Kartan vaihtaminen: klikkaa mustalla rastilla varustettuja vihreitä pisteitä, niin voit zoomata sisään; viivalla varustettua vihreää pistettä, niin voit zoomata ulos tai vihreitä nuolia, niin pääset viereisille kartoille.


METAR-TAF: